»·PEaware :: WAT1252 KVNY-KSAN

WAT1252 :: KVNY-KSAN

FLIGHT INFORMATION

Flight Status: Arrived
Operator:
Walker Air Transport
More flights by this operator :: More flights under this callsign
Pilot: David D. (37029)
Aircraft: PIPER PA-31/31P NAVAJO CHIEFTAIN
(PA31)
More flights by this aircraft type
Origin: KVNY Van Nuys
United States
Destination: KSAN San Diego Intl-Lindbergh
United States
More flights between these airports :: More routes between these airports
Route: ADAMM3 ADAMM V186 HAILE V66 MZB
File this flight plan on PilotEdge
Remarks:
Altitude:
(Current/Filed)
9,000ft
Speed:
(Current/Filed)
190kts
Departed: 05-Apr-23 03:07 PM
Arrived: 05-Apr-23 04:07 PM
Distance/Time
Traveled:
110nm/1:00
Distance/Time
To Go:
Arrived

Flight Plot

Page will automatically refresh every two minutes.

Flight plan parsing failed; only flown route is shown


Map Options




Map Legend


Flown Route
Filed Route
Departure Airport
Arrival Airport
Navaid (VOR, NDB)
Fix

Horizontal Profiles

Position Reports

Time Latitude Longitude Heading Altitude Ground
Speed
05-Apr-23 14:13 34.218750 -118.495940 3 805ft 0kts
05-Apr-23 14:14 34.218750 -118.495940 3 805ft 0kts
05-Apr-23 14:14 34.218750 -118.495940 3 805ft 0kts
05-Apr-23 14:15 34.218750 -118.495940 3 805ft 0kts
05-Apr-23 14:16 34.218750 -118.495940 3 805ft 0kts
05-Apr-23 14:17 34.218750 -118.495940 3 805ft 0kts
05-Apr-23 14:19 34.218750 -118.495940 3 805ft 0kts
05-Apr-23 14:19 34.218750 -118.495940 3 805ft 0kts
05-Apr-23 14:20 34.218750 -118.495940 3 805ft 0kts
05-Apr-23 14:21 34.218750 -118.495940 3 805ft 0kts
05-Apr-23 14:22 34.218750 -118.495940 3 805ft 0kts
05-Apr-23 14:23 34.218750 -118.495940 3 805ft 0kts
05-Apr-23 14:24 34.218750 -118.495940 3 805ft 0kts
05-Apr-23 14:25 34.218750 -118.495940 3 805ft 0kts
05-Apr-23 14:26 34.218750 -118.495940 3 805ft 0kts
05-Apr-23 14:27 34.218750 -118.495940 3 805ft 0kts
05-Apr-23 14:28 34.218750 -118.495940 3 805ft 0kts
05-Apr-23 14:29 34.218750 -118.495940 3 805ft 0kts
05-Apr-23 14:30 34.218750 -118.495940 3 805ft 0kts
05-Apr-23 14:31 34.218750 -118.495940 3 805ft 0kts
05-Apr-23 14:32 34.218750 -118.495940 3 805ft 0kts
05-Apr-23 14:33 34.218750 -118.495940 3 805ft 0kts
05-Apr-23 14:34 34.218750 -118.495940 3 805ft 0kts
05-Apr-23 14:35 34.218750 -118.495940 3 805ft 0kts
05-Apr-23 14:36 34.218750 -118.495940 3 805ft 0kts
05-Apr-23 14:37 34.218750 -118.495940 3 805ft 0kts
05-Apr-23 14:38 34.218750 -118.495940 3 805ft 0kts
05-Apr-23 14:39 34.218750 -118.495940 3 805ft 0kts
05-Apr-23 14:40 34.218750 -118.495940 3 805ft 0kts
05-Apr-23 14:41 34.218750 -118.495940 3 805ft 0kts
05-Apr-23 14:42 34.218750 -118.495940 3 805ft 0kts
05-Apr-23 14:43 34.218750 -118.495940 3 805ft 0kts
05-Apr-23 14:44 34.218750 -118.495940 3 805ft 0kts
05-Apr-23 14:45 34.218750 -118.495940 3 805ft 0kts
05-Apr-23 14:46 34.218750 -118.495940 3 805ft 0kts
05-Apr-23 14:47 34.218750 -118.495940 3 805ft 0kts
05-Apr-23 14:48 34.218750 -118.495940 3 805ft 0kts
05-Apr-23 14:49 34.218750 -118.495940 3 805ft 0kts
05-Apr-23 14:50 34.218750 -118.495940 3 805ft 0kts
05-Apr-23 14:51 34.218750 -118.495940 3 805ft 0kts
05-Apr-23 14:52 34.218750 -118.495940 3 805ft 0kts
05-Apr-23 14:53 34.218750 -118.495940 3 805ft 0kts
05-Apr-23 14:54 34.218750 -118.495940 3 805ft 0kts
05-Apr-23 14:55 34.218750 -118.495940 3 805ft 0kts
05-Apr-23 14:56 34.218750 -118.495940 3 805ft 0kts
05-Apr-23 14:57 34.218750 -118.495940 3 805ft 0kts
05-Apr-23 14:58 34.218524 -118.496371 218 805ft 5kts
05-Apr-23 14:59 34.217428 -118.494576 98 805ft 8kts
05-Apr-23 15:00 34.217935 -118.492331 355 805ft 8kts
05-Apr-23 15:01 34.218620 -118.492237 44 805ft 0kts
05-Apr-23 15:02 34.218620 -118.492237 44 805ft 0kts
05-Apr-23 15:03 34.218620 -118.492237 44 805ft 0kts
05-Apr-23 15:04 34.218620 -118.492237 44 805ft 0kts
05-Apr-23 15:05 34.218673 -118.491326 142 805ft 11kts
05-Apr-23 15:06 34.199568 -118.489325 176 1343ft 104kts
05-Apr-23 15:07 34.176768 -118.471675 120 2739ft 108kts
05-Apr-23 15:08 34.162326 -118.437061 123 3633ft 120kts
05-Apr-23 15:09 34.148161 -118.402050 118 4637ft 115kts
05-Apr-23 15:10 34.143943 -118.364999 90 5648ft 114kts
05-Apr-23 15:11 34.142990 -118.329493 129 6595ft 103kts
05-Apr-23 15:12 34.132092 -118.293122 110 7003ft 141kts
05-Apr-23 15:13 34.120071 -118.242652 110 6996ft 165kts
05-Apr-23 15:14 34.107091 -118.188469 110 6995ft 169kts
05-Apr-23 15:15 34.094085 -118.133715 109 6995ft 170kts
05-Apr-23 15:16 34.089720 -118.076626 94 6994ft 174kts
05-Apr-23 15:17 34.079977 -118.020916 112 6994ft 170kts
05-Apr-23 15:18 34.063737 -117.967212 113 6994ft 171kts
05-Apr-23 15:19 34.047046 -117.913329 114 6993ft 172kts
05-Apr-23 15:20 34.030301 -117.858885 114 6992ft 173kts
05-Apr-23 15:21 34.013201 -117.804311 115 6990ft 174kts
05-Apr-23 15:22 33.995880 -117.749225 116 6989ft 177kts
05-Apr-23 15:23 33.976471 -117.694327 108 6994ft 179kts
05-Apr-23 15:24 33.956865 -117.639028 109 6993ft 179kts
05-Apr-23 15:25 33.937407 -117.583933 109 6995ft 177kts
05-Apr-23 15:26 33.917003 -117.529908 128 6989ft 180kts
05-Apr-23 15:27 33.876192 -117.494161 141 7182ft 176kts
05-Apr-23 15:28 33.838166 -117.462711 140 8074ft 161kts
05-Apr-23 15:29 33.801738 -117.432185 139 8868ft 160kts
05-Apr-23 15:30 33.763019 -117.399590 140 8989ft 174kts
05-Apr-23 15:31 33.723675 -117.366792 139 8991ft 171kts
05-Apr-23 15:32 33.684786 -117.334409 139 8998ft 171kts
05-Apr-23 15:33 33.645619 -117.301762 139 9001ft 172kts
05-Apr-23 15:34 33.606166 -117.268904 139 9002ft 173kts
05-Apr-23 15:35 33.566598 -117.235991 139 9002ft 173kts
05-Apr-23 15:36 33.527073 -117.203124 146 9008ft 171kts
05-Apr-23 15:37 33.488843 -117.171449 146 9003ft 164kts
05-Apr-23 15:38 33.446850 -117.154724 168 9007ft 160kts
05-Apr-23 15:39 33.403142 -117.145671 168 9008ft 159kts
05-Apr-23 15:40 33.359446 -117.136492 168 9008ft 159kts
05-Apr-23 15:41 33.315862 -117.127267 168 9008ft 159kts
05-Apr-23 15:42 33.272291 -117.117967 167 9015ft 158kts
05-Apr-23 15:43 33.233470 -117.094187 151 9066ft 157kts
05-Apr-23 15:44 33.195298 -117.068235 151 9111ft 158kts
05-Apr-23 15:45 33.156914 -117.041725 150 9153ft 160kts
05-Apr-23 15:46 33.117501 -117.014886 151 9027ft 166kts
05-Apr-23 15:47 33.077862 -116.987130 151 9031ft 164kts
05-Apr-23 15:48 33.038521 -116.959369 150 9031ft 165kts
05-Apr-23 15:49 32.998884 -116.931168 150 9030ft 166kts
05-Apr-23 15:50 32.959243 -116.902986 150 9028ft 166kts
05-Apr-23 15:51 32.919346 -116.874828 150 9028ft 167kts
05-Apr-23 15:52 32.878827 -116.846333 150 8736ft 177kts
05-Apr-23 15:53 32.835094 -116.815059 150 7879ft 189kts
05-Apr-23 15:54 32.787583 -116.823500 204 6897ft 191kts
05-Apr-23 15:55 32.740750 -116.850010 205 5841ft 177kts
05-Apr-23 15:56 32.698104 -116.874039 208 5047ft 150kts
05-Apr-23 15:57 32.678929 -116.910024 247 4719ft 128kts
05-Apr-23 15:58 32.676213 -116.951962 283 4046ft 134kts
05-Apr-23 15:59 32.685135 -116.991423 280 3671ft 107kts
05-Apr-23 16:00 32.693036 -117.024921 280 3328ft 106kts
05-Apr-23 16:01 32.701130 -117.056658 283 2656ft 95kts
05-Apr-23 16:02 32.708888 -117.086211 284 1973ft 90kts
05-Apr-23 16:03 32.715583 -117.115799 286 1410ft 89kts
05-Apr-23 16:04 32.721976 -117.143899 286 811ft 86kts
05-Apr-23 16:05 32.728668 -117.169666 287 219ft 80kts
05-Apr-23 16:06 32.733156 -117.187840 303 20ft 17kts
05-Apr-23 16:07 32.734152 -117.187307 103 20ft 10kts
05-Apr-23 16:08 32.733508 -117.184770 107 20ft 15kts
05-Apr-23 16:09 32.732530 -117.180133 50 20ft 7kts
05-Apr-23 16:10 32.733498 -117.178188 111 20ft 6kts
05-Apr-23 16:11 32.733085 -117.178167 187 20ft 0kts
05-Apr-23 16:12 32.733085 -117.178167 187 20ft 0kts

Navigation Log

Ident Type
Flight plan parsing failed, navigation log unavailable